Aeroporto :
LOGIN :

Iscrizione | Disclaimer

   EN    FR    IT 

 










Sommario :    VFR   VFR Marginale   IFR   IFR Intensivo   IFR Molto Intensivo
Visibilità : 
Base nubi : 
>= 8 km
>= 3000ft
5 / 8 km
1000 / 3000 ft
1500m / 5 km
500 / 1000 ft
800 / 1500m
200 / 500 ft
< 800m
< 200 ft
Simboli :   Temporali  Nebbia  Neve Forte  Precipitazioni Forti  Vento > 20 kt
SIGMETs :   Varie  Temporali  Ghiacco  Turbolenza  Onda orograficha  Ceneri Vulcaniche







- Altitudine del aeroporto : 659 ft
- Codice IATA : LGG


EBLG - Liège

ULTIMO METAR :
  • 200220Z 16007KT 130V220 CAVOK 19/14 Q1012 NOSIG

METARs OBSOLETI :
  • 200150Z 14006KT 120V180 CAVOK 18/14 Q1012 NOSIG
  • 200120Z 13007KT CAVOK 19/14 Q1012 NOSIG
  • 200050Z VRB07G17KT CAVOK 19/14 Q1012 NOSIG
  • 200020Z 14006KT CAVOK 19/14 Q1013 NOSIG
  • 192350Z 14006KT CAVOK 19/14 Q1013 NOSIG

TAF TAF EBLG
Valido dal 20 a 00 ore il 21 a 06 ore UTC


192310Z 2000/2106 16006KT CAVOK
TEMPO 2008/2010 3500 SHRA
PROB30
TEMPO 2009/2011 VRB20G35KT 2500 +SHRA TSRA
TEMPO 2014/2017 3500 SHRA
PROB40
TEMPO 2013/2016 VRB20G35KT1500 TSRAGR
Nessun NOTAM noto per questo aeroporto.



MetMap, La meteo Aeronautica in un colpo d'occhio ! - Copyright ORBIFLY Dicembre 2007 - Disclaimer

ORBIFLY MET'MAP TEAM :

Programmazione e sviluppo : Alexandra Zaïnal
Concezione e sviluppo : Baudouin d'Aumeries
Co-Programmazione e sviluppo : Marc-Olivier Méhu
Supporto tecnico e logistico : Manuel Goepfert
Aiuto per la traduzione : Arnaldo La Scala

Contatto : metmap@orbifly.com




FONTI E CREDITI :

   NOAA